Time;durP1;ratioP1;P1;durP2;ratioP2;P2;SDS_P1;SDS_P2;PMS_P1;PMS_P2;Temp;Humidity;BMP_temperature;BMP_pressure;BME280_temperature;BME280_humidity;BME280_pressure;Samples;Min_cycle;Max_cycle;Signal;HPM_P1;HPM_P2
2023/12/30 00:02:19;;;;;;;38.95;21.10;;;;;;;3.93;63.65;99842.91;7710568;32;38668;-84
2023/12/30 00:06:36;;;;;;;34.20;21.08;;;;;;;3.93;63.53;99848.31;7710421;32;37942;-84
2023/12/30 00:10:52;;;;;;;34.65;20.60;;;;;;;4.06;62.62;99840.06;7710304;32;40195;-84
2023/12/30 00:15:09;;;;;;;38.60;20.67;;;;;;;3.96;62.65;99842.47;7710034;32;40762;-84
2023/12/30 00:19:25;;;;;;;36.83;21.23;;;;;;;4.10;62.27;99848.53;7710226;32;38633;-84
2023/12/30 00:23:43;;;;;;;36.15;20.00;;;;;;;4.27;62.00;99840.63;7709825;32;38095;-83
2023/12/30 00:28:02;;;;;;;37.08;21.80;;;;;;;4.13;62.68;99832.69;7709936;32;39477;-83
2023/12/30 00:32:18;;;;;;;39.60;22.00;;;;;;;4.30;62.82;99837.47;7709904;32;39715;-84
2023/12/30 00:36:40;;;;;;;37.30;19.90;;;;;;;4.21;63.41;99844.22;7709549;32;37927;-84
2023/12/30 00:40:57;;;;;;;33.58;19.98;;;;;;;4.16;63.89;99846.78;7709777;32;37322;-84
2023/12/30 00:45:13;;;;;;;36.33;21.33;;;;;;;4.13;64.70;99843.50;7709634;32;40084;-84
2023/12/30 00:49:29;;;;;;;37.63;21.75;;;;;;;4.34;64.59;99841.34;7712956;32;40740;-83
2023/12/30 00:53:46;;;;;;;226.05;22.48;;;;;;;4.33;64.50;99840.53;7712858;32;38768;-84
2023/12/30 00:58:02;;;;;;;33.80;18.62;;;;;;;4.29;63.61;99841.19;7712984;32;37334;-84
2023/12/30 01:02:18;;;;;;;33.85;19.12;;;;;;;4.25;63.04;99850.81;7712947;32;39983;-84
2023/12/30 01:06:35;;;;;;;32.70;19.67;;;;;;;3.92;63.50;99850.19;7712810;32;40797;-84
2023/12/30 01:10:51;;;;;;;32.40;18.23;;;;;;;3.72;63.67;99855.81;7712692;32;37843;-84
2023/12/30 01:15:08;;;;;;;32.20;18.65;;;;;;;3.94;62.96;99840.00;7712703;32;37243;-84
2023/12/30 01:19:25;;;;;;;29.95;17.92;;;;;;;3.92;62.85;99846.69;7712292;32;39893;-84
2023/12/30 01:23:42;;;;;;;119.78;19.92;;;;;;;3.74;63.22;99845.66;7712378;32;40189;-84
2023/12/30 01:27:59;;;;;;;56.05;18.00;;;;;;;3.76;63.19;99846.25;7712621;32;38578;-84
2023/12/30 01:32:15;;;;;;;28.87;16.02;;;;;;;3.71;63.00;99840.69;7712470;32;37914;-84
2023/12/30 01:36:32;;;;;;;21.80;14.95;;;;;;;3.69;62.92;99852.75;7712702;32;39281;-84
2023/12/30 01:40:48;;;;;;;25.83;16.20;;;;;;;3.89;62.56;99841.75;7712485;32;39873;-84
2023/12/30 01:45:05;;;;;;;25.52;16.75;;;;;;;3.56;63.17;99843.75;7712363;32;37856;-83
2023/12/30 01:49:22;;;;;;;28.90;16.80;;;;;;;3.36;64.62;99838.59;7712284;32;37230;-83
2023/12/30 01:53:41;;;;;;;27.05;16.73;;;;;;;3.34;64.22;99837.97;7712237;32;39455;-84
2023/12/30 01:57:57;;;;;;;53.13;17.98;;;;;;;3.18;64.67;99836.69;7711868;32;39950;-84
2023/12/30 02:02:14;;;;;;;55.42;17.75;;;;;;;3.41;63.63;99837.91;7723229;32;38774;-84
2023/12/30 02:06:30;;;;;;;74.97;18.90;;;;;;;3.09;64.40;99837.22;7723463;32;38248;-84
2023/12/30 02:10:46;;;;;;;32.72;17.00;;;;;;;3.28;63.72;99841.59;7711962;32;39351;-84
2023/12/30 02:15:21;;;;;;;28.73;17.50;;;;;;;3.41;63.53;99831.72;7711466;32;39897;-84
2023/12/30 02:19:38;;;;;;;27.87;16.12;;;;;;;3.28;63.58;99825.41;7722751;32;38031;-84
2023/12/30 02:23:54;;;;;;;31.30;18.05;;;;;;;3.41;63.05;99818.22;7711984;32;37123;-84
2023/12/30 02:28:11;;;;;;;37.55;18.90;;;;;;;3.20;64.11;99817.63;7711921;32;39015;-83
2023/12/30 02:32:27;;;;;;;31.80;17.85;;;;;;;3.35;63.89;99812.69;7711746;32;40874;-83
2023/12/30 02:36:44;;;;;;;33.40;19.73;;;;;;;3.42;63.40;99817.19;7711697;32;37905;-82
2023/12/30 02:41:01;;;;;;;34.58;17.95;;;;;;;3.47;63.03;99804.69;7711747;32;37052;-83
2023/12/30 02:45:17;;;;;;;29.52;18.33;;;;;;;3.37;62.77;99807.91;7711632;32;39374;-83
2023/12/30 02:49:34;;;;;;;31.65;17.73;;;;;;;3.14;63.14;99813.94;7711105;32;40902;-83
2023/12/30 02:53:51;;;;;;;27.23;17.52;;;;;;;3.23;62.70;99811.78;7711715;32;37849;-83
2023/12/30 02:58:07;;;;;;;32.95;18.00;;;;;;;3.31;62.52;99802.56;7711465;32;37921;-83
2023/12/30 03:02:24;;;;;;;55.20;16.92;;;;;;;3.12;63.17;99799.03;7940752;27;39453;-90
2023/12/30 03:06:40;;;;;;;29.50;17.67;;;;;;;3.34;62.80;99797.56;7691103;32;41083;-89
2023/12/30 03:10:56;;;;;;;136.85;19.42;;;;;;;3.34;62.54;99791.34;7709110;32;37921;-89
2023/12/30 03:15:13;;;;;;;35.38;17.15;;;;;;;3.17;63.22;99801.88;7713784;32;38489;-91
2023/12/30 03:19:29;;;;;;;33.30;15.10;;;;;;;3.09;63.69;99794.13;7714243;32;40341;-80
2023/12/30 03:23:46;;;;;;;102.90;17.30;;;;;;;3.22;65.43;99804.75;7718854;32;39898;-84
2023/12/30 03:28:03;;;;;;;56.28;17.23;;;;;;;3.38;63.90;99798.78;7714839;32;38933;-88
2023/12/30 03:32:19;;;;;;;62.75;18.23;;;;;;;3.22;64.28;99788.56;7723315;32;37676;-85
2023/12/30 03:36:36;;;;;;;122.75;19.25;;;;;;;3.21;64.43;99797.72;7722837;32;39663;-84
2023/12/30 03:40:52;;;;;;;44.90;17.60;;;;;;;2.94;65.18;99791.75;7722911;32;41246;-86
2023/12/30 03:45:09;;;;;;;91.30;17.48;;;;;;;3.30;64.46;99790.97;7722395;32;38262;-83
2023/12/30 03:49:25;;;;;;;35.45;17.67;;;;;;;3.29;64.43;99789.31;7721416;32;37605;-87
2023/12/30 03:53:42;;;;;;;45.05;18.65;;;;;;;3.26;64.47;99802.41;7721910;32;39430;-89
2023/12/30 03:57:58;;;;;;;57.78;17.02;;;;;;;3.24;64.51;99797.25;7712847;32;40018;-89
2023/12/30 04:02:18;;;;;;;32.58;16.35;;;;;;;3.41;64.09;99793.97;7717235;32;38078;-87
2023/12/30 04:06:34;;;;;;;36.67;17.10;;;;;;;3.50;63.52;99773.75;7711973;32;37368;-90
2023/12/30 04:10:50;;;;;;;40.22;16.73;;;;;;;3.34;63.85;99794.87;7687887;32;39442;-90
2023/12/30 04:15:07;;;;;;;31.65;16.58;;;;;;;3.51;63.46;99796.97;7687618;32;41120;-86
2023/12/30 04:19:24;;;;;;;37.20;17.60;;;;;;;3.20;64.17;99799.56;7690702;32;38729;-87
2023/12/30 04:23:41;;;;;;;66.28;19.08;;;;;;;3.36;63.81;99808.97;7696729;32;38073;-88
2023/12/30 04:27:58;;;;;;;65.78;19.08;;;;;;;3.21;64.30;99808.50;7695790;32;39409;-89
2023/12/30 04:32:14;;;;;;;60.55;18.50;;;;;;;3.18;64.52;99808.94;7697306;32;39837;-87
2023/12/30 04:36:30;;;;;;;34.13;18.00;;;;;;;3.30;64.55;99814.41;7699217;32;38144;-86
2023/12/30 04:40:46;;;;;;;50.70;18.27;;;;;;;3.32;64.59;99821.22;7694189;32;38254;-87
2023/12/30 04:45:03;;;;;;;53.20;18.83;;;;;;;3.35;64.61;99831.56;7697446;32;39427;-88
2023/12/30 04:49:19;;;;;;;40.33;18.92;;;;;;;3.42;64.34;99838.75;7694769;32;39946;-88
2023/12/30 04:53:36;;;;;;;61.47;20.40;;;;;;;3.67;63.69;99836.78;7691744;32;38715;-89
2023/12/30 04:57:52;;;;;;;86.12;18.30;;;;;;;3.41;64.81;99845.19;7693339;32;38160;-86
2023/12/30 05:02:08;;;;;;;74.12;19.67;;;;;;;3.57;64.11;99860.78;7700889;32;40436;-88
2023/12/30 05:06:25;;;;;;;118.93;21.27;;;;;;;3.28;65.28;99868.53;7701247;32;41064;-85
2023/12/30 05:10:41;;;;;;;38.90;18.67;;;;;;;3.20;65.28;99879.59;7702438;32;38293;-86
2023/12/30 05:14:57;;;;;;;45.97;18.60;;;;;;;3.44;64.79;99877.09;7702392;32;37433;-87
2023/12/30 05:19:14;;;;;;;45.08;19.10;;;;;;;3.22;65.63;99872.09;7701905;32;39792;-86
2023/12/30 05:23:33;;;;;;;32.15;18.60;;;;;;;3.46;65.08;99864.22;7699583;32;41270;-89
2023/12/30 05:27:49;;;;;;;173.87;22.37;;;;;;;3.50;65.17;99878.87;7694814;32;38815;-89
2023/12/30 05:32:05;;;;;;;102.93;19.42;;;;;;;3.33;65.42;99881.34;7692879;32;37994;-88
2023/12/30 05:36:22;;;;;;;150.50;20.05;;;;;;;3.53;64.81;99881.13;7689915;32;39413;-90
2023/12/30 05:40:39;;;;;;;153.80;22.23;;;;;;;3.31;65.16;99886.09;7686794;32;40902;-88
2023/12/30 05:44:55;;;;;;;108.72;19.75;;;;;;;3.32;64.58;99893.16;7705570;32;38439;-90
2023/12/30 05:49:11;;;;;;;117.60;20.08;;;;;;;3.45;63.81;99900.28;7691191;32;37221;-89
2023/12/30 05:53:28;;;;;;;102.47;20.02;;;;;;;3.31;64.09;99905.81;7695654;32;39548;-83
2023/12/30 05:57:45;;;;;;;60.30;24.67;;;;;;;3.25;64.48;99905.88;7694828;32;40069;-86
2023/12/30 06:02:01;;;;;;;51.10;18.02;;;;;;;3.00;65.17;99888.66;7691238;32;38676;-88
2023/12/30 06:06:18;;;;;;;30.62;17.55;;;;;;;3.06;64.81;99902.31;7687480;32;37400;-88
2023/12/30 06:10:34;;;;;;;52.13;21.98;;;;;;;2.95;64.97;99912.75;7691333;32;39434;-87
2023/12/30 06:14:51;;;;;;;55.38;17.77;;;;;;;2.87;64.99;99906.78;7685766;32;40884;-88
2023/12/30 06:19:07;;;;;;;69.78;16.83;;;;;;;2.79;65.11;99915.94;7685633;32;37966;-90
2023/12/30 06:23:24;;;;;;;55.25;15.82;;;;;;;2.87;64.85;99904.91;7685643;32;37412;-89
2023/12/30 06:27:40;;;;;;;67.57;16.85;;;;;;;2.83;65.36;99901.03;7685765;32;39265;-89
2023/12/30 06:31:57;;;;;;;84.53;16.10;;;;;;;2.96;64.66;99908.16;7685115;32;41055;-89
2023/12/30 06:36:21;;;;;;;30.60;14.68;;;;;;;2.90;64.77;99922.50;7685306;32;37843;-89
2023/12/30 06:40:37;;;;;;;34.45;14.00;;;;;;;3.09;64.37;99920.72;7690776;32;37197;-90
2023/12/30 06:44:53;;;;;;;57.88;15.27;;;;;;;3.05;64.59;99919.50;7711142;32;40103;-88
2023/12/30 06:49:10;;;;;;;89.28;17.23;;;;;;;2.98;64.96;99920.38;7712120;32;40720;-89
2023/12/30 06:53:29;;;;;;;62.20;16.42;;;;;;;2.91;65.19;99938.44;7712001;32;37962;-88
2023/12/30 06:57:45;;;;;;;162.55;18.33;;;;;;;3.16;64.67;99941.16;7713127;32;37810;-88
2023/12/30 07:02:01;;;;;;;127.90;17.70;;;;;;;2.92;65.45;99963.53;7713870;32;39154;-84
2023/12/30 07:06:18;;;;;;;79.62;15.15;;;;;;;3.05;64.95;99967.97;7712296;32;40238;-89
2023/12/30 07:10:35;;;;;;;170.70;18.10;;;;;;;3.18;64.80;99967.88;7712458;32;38832;-89
2023/12/30 07:14:52;;;;;;;202.65;19.65;;;;;;;3.29;64.10;99971.75;7714602;32;37465;-89
2023/12/30 07:19:08;;;;;;;27.00;15.70;;;;;;;3.08;64.45;99972.94;7718983;32;39925;-88
2023/12/30 07:23:24;;;;;;;24.12;15.02;;;;;;;3.16;64.17;99972.69;7710528;32;41076;-87
2023/12/30 07:27:40;;;;;;;27.23;15.13;;;;;;;3.19;64.35;99969.53;7685652;32;38072;-88
2023/12/30 07:31:57;;;;;;;27.48;15.80;;;;;;;3.06;64.42;99980.41;7684805;32;38000;-85
2023/12/30 07:36:13;;;;;;;27.25;16.10;;;;;;;3.21;64.11;99980.94;7684653;32;39349;-87
2023/12/30 07:40:29;;;;;;;34.35;17.42;;;;;;;3.11;64.33;99991.38;7692896;32;40733;-86
2023/12/30 07:44:45;;;;;;;52.97;17.48;;;;;;;3.32;63.83;99985.59;7702341;32;37608;-86
2023/12/30 07:49:02;;;;;;;64.75;18.23;;;;;;;3.38;66.21;99989.28;7684765;32;38109;-88
2023/12/30 07:53:19;;;;;;;28.73;16.62;;;;;;;3.48;64.29;99988.78;7684803;32;40115;-88
2023/12/30 07:57:35;;;;;;;82.47;19.50;;;;;;;3.49;64.37;99993.97;7685194;32;40727;-88
2023/12/30 08:01:51;;;;;;;36.17;17.20;;;;;;;3.71;63.66;100001.69;7684075;32;37652;-85
2023/12/30 08:06:08;;;;;;;58.30;18.30;;;;;;;3.54;64.26;99991.44;7685495;32;37142;-88
2023/12/30 08:10:24;;;;;;;41.10;17.42;;;;;;;3.26;65.70;100004.50;7686089;32;39549;-86
2023/12/30 08:14:40;;;;;;;56.75;18.05;;;;;;;3.50;64.72;100005.56;7705585;32;40123;-87
2023/12/30 08:18:57;;;;;;;60.25;17.62;;;;;;;3.47;64.79;100012.25;7695898;32;38795;-89
2023/12/30 08:23:13;;;;;;;98.37;19.55;;;;;;;3.64;64.83;100028.69;7684655;32;37170;-87
2023/12/30 08:27:29;;;;;;;132.43;20.92;;;;;;;3.70;64.93;100025.09;7695931;32;39380;-88
2023/12/30 08:31:45;;;;;;;47.95;16.85;;;;;;;3.74;65.28;100025.47;7695554;32;41212;-89
2023/12/30 08:36:02;;;;;;;63.53;19.65;;;;;;;4.00;64.67;100016.34;7697077;32;38176;-88
2023/12/30 08:40:18;;;;;;;127.55;22.45;;;;;;;4.04;64.80;100028.31;7695133;32;37406;-86
2023/12/30 08:44:40;;;;;;;70.25;19.10;;;;;;;4.19;64.80;100033.37;7695057;32;39484;-86
2023/12/30 08:48:56;;;;;;;57.00;19.65;;;;;;;4.32;64.57;100029.69;7679666;32;40012;-88
2023/12/30 08:53:13;;;;;;;78.47;20.35;;;;;;;4.57;63.98;100037.72;7708841;32;38982;-86
2023/12/30 08:57:29;;;;;;;239.05;26.73;;;;;;;4.50;64.54;100048.59;7707415;32;38043;-87
2023/12/30 09:01:45;;;;;;;66.55;21.12;;;;;;;4.57;64.73;100059.31;7708224;32;39369;-88
2023/12/30 09:06:01;;;;;;;53.78;19.73;;;;;;;4.82;65.23;100050.28;7704013;32;41333;-86
2023/12/30 09:10:19;;;;;;;48.47;19.33;;;;;;;5.36;65.89;100042.25;7704654;32;37847;-87
2023/12/30 09:14:35;;;;;;;67.30;20.58;;;;;;;5.69;64.85;100049.03;7686108;32;38232;-77
2023/12/30 09:18:51;;;;;;;52.72;21.35;;;;;;;5.56;66.30;100050.87;7689635;32;39837;-87
2023/12/30 09:23:08;;;;;;;35.10;21.20;;;;;;;5.79;64.95;100035.75;7686953;32;39779;-88
2023/12/30 09:27:24;;;;;;;63.53;19.87;;;;;;;6.36;62.22;100036.00;7686521;32;38241;-87
2023/12/30 09:31:40;;;;;;;28.12;15.68;;;;;;;5.31;63.80;100040.22;7685943;32;37939;-89
2023/12/30 09:35:57;;;;;;;43.50;17.80;;;;;;;5.34;63.71;100031.66;7712536;32;39515;-89
2023/12/30 09:40:14;;;;;;;130.35;21.95;;;;;;;5.85;63.12;100021.28;7714756;32;39789;-85
2023/12/30 09:44:32;;;;;;;100.35;20.77;;;;;;;5.97;62.91;100015.91;7716612;32;38160;-89
2023/12/30 09:48:49;;;;;;;99.35;21.75;;;;;;;6.23;62.95;100017.31;7712444;32;37310;-85
2023/12/30 09:53:06;;;;;;;36.75;20.10;;;;;;;6.33;64.06;100011.25;7710970;32;39274;-86
2023/12/30 09:57:22;;;;;;;45.03;18.55;;;;;;;6.66;63.73;99998.97;7712247;32;40843;-86
2023/12/30 10:01:39;;;;;;;74.75;22.52;;;;;;;7.00;62.82;99999.84;7710723;32;38052;-86
2023/12/30 10:06:01;;;;;;;58.70;23.23;;;;;;;7.23;61.88;99992.69;7689606;32;36958;-84
2023/12/30 10:10:34;;;;;;;49.33;22.30;;;;;;;7.29;61.90;99991.69;7685568;32;39312;-84
2023/12/30 10:14:50;;;;;;;;;;;;;;;7.50;63.22;99982.84;7685769;32;40075;-87
2023/12/30 10:19:11;;;;;;;55.20;21.52;;;;;;;7.96;61.79;99980.00;7685338;32;38278;-86
2023/12/30 10:23:28;;;;;;;38.45;20.88;;;;;;;7.97;61.34;99976.22;7685262;32;37133;-85
2023/12/30 10:27:49;;;;;;;37.28;20.65;;;;;;;8.06;60.83;99969.28;7685819;32;39302;-86
2023/12/30 10:32:08;;;;;;;45.20;21.20;;;;;;;8.35;61.60;99969.09;7693139;32;39714;-86
2023/12/30 10:36:28;;;;;;;41.67;22.73;;;;;;;8.17;60.97;99963.97;7711690;32;38699;-85
2023/12/30 10:40:45;;;;;;;43.22;22.50;;;;;;;8.66;60.95;99964.06;7711469;32;37533;-86
2023/12/30 10:45:01;;;;;;;44.13;21.98;;;;;;;8.86;60.70;99960.72;7694347;32;39875;-85
2023/12/30 10:49:21;;;;;;;39.03;21.27;;;;;;;9.01;60.23;99955.44;7692311;32;39844;-85
2023/12/30 10:53:44;;;;;;;40.63;21.90;;;;;;;9.24;59.63;99950.75;7683714;32;38655;-85
2023/12/30 10:58:06;;;;;;;40.27;22.90;;;;;;;9.33;58.76;99949.22;7696087;32;37256;-84
2023/12/30 11:02:23;;;;;;;38.47;21.20;;;;;;;9.48;58.60;99934.88;7687135;32;40223;-84
2023/12/30 11:06:49;;;;;;;35.63;20.92;;;;;;;9.69;60.62;99940.47;7710339;32;39897;-84
2023/12/30 11:11:07;;;;;;;34.10;19.67;;;;;;;9.60;57.85;99934.69;7709860;32;38544;-85
2023/12/30 11:15:23;;;;;;;32.30;19.10;;;;;;;9.80;58.59;99935.94;7710810;32;37816;-83
2023/12/30 11:19:40;;;;;;;32.47;18.87;;;;;;;10.02;57.59;99928.44;7710729;32;38984;-85
2023/12/30 11:24:04;;;;;;;35.10;18.95;;;;;;;10.02;57.43;99923.00;7702945;32;39999;-84
2023/12/30 11:28:22;;;;;;;35.17;20.95;;;;;;;10.29;56.11;99917.37;7711177;32;36912;-84
2023/12/30 11:32:38;;;;;;;34.70;19.98;;;;;;;9.62;57.74;99921.66;7694552;32;37384;-83
2023/12/30 11:36:57;;;;;;;29.90;18.60;;;;;;;9.78;58.54;99911.69;7702918;32;39268;-84
2023/12/30 11:41:14;;;;;;;32.20;18.60;;;;;;;9.92;58.92;99903.88;7697672;32;39898;-86
2023/12/30 11:45:30;;;;;;;29.52;18.45;;;;;;;10.15;58.95;99895.25;7688608;32;37947;-84
2023/12/30 11:49:46;;;;;;;31.17;18.08;;;;;;;10.20;57.83;99891.72;7684247;32;38029;-83
2023/12/30 11:54:03;;;;;;;32.72;18.83;;;;;;;10.20;58.06;99896.38;7684118;32;40143;-83
2023/12/30 11:58:20;;;;;;;29.60;17.73;;;;;;;10.35;58.34;99904.63;7684095;32;39729;-84
2023/12/30 12:02:36;;;;;;;27.27;16.67;;;;;;;11.05;56.62;99899.56;7683723;32;37688;-77
2023/12/30 12:06:53;;;;;;;25.55;15.10;;;;;;;11.21;59.67;99897.66;7670043;32;38332;-84
2023/12/30 12:11:09;;;;;;;26.80;15.65;;;;;;;11.32;55.05;99898.47;7683680;32;39349;-84
2023/12/30 12:15:25;;;;;;;24.12;14.57;;;;;;;11.54;53.48;99887.25;7698596;32;39843;-83
2023/12/30 12:19:41;;;;;;;25.62;14.60;;;;;;;11.51;54.20;99890.53;7710360;32;38585;-84
2023/12/30 12:23:58;;;;;;;26.73;15.80;;;;;;;11.35;53.95;99889.75;7700289;32;37057;-85
2023/12/30 12:28:17;;;;;;;29.40;17.10;;;;;;;11.58;53.68;99882.88;7688792;32;40049;-84
2023/12/30 12:32:34;;;;;;;28.58;16.42;;;;;;;11.34;54.64;99895.47;7700997;32;39886;-85
2023/12/30 12:36:50;;;;;;;28.33;17.48;;;;;;;11.49;55.46;99881.81;7696521;32;37886;-84
2023/12/30 12:41:06;;;;;;;30.08;17.73;;;;;;;11.22;54.26;99896.56;7684046;32;37361;-85
2023/12/30 12:45:23;;;;;;;28.67;17.60;;;;;;;11.73;54.25;99897.59;7686344;32;39156;-86
2023/12/30 12:49:39;;;;;;;31.90;16.73;;;;;;;11.57;53.65;99886.72;7686244;32;40886;-87
2023/12/30 12:53:56;;;;;;;29.75;17.60;;;;;;;11.50;53.82;99894.34;7686088;32;38562;-88
2023/12/30 12:58:12;;;;;;;26.90;15.73;;;;;;;11.93;54.29;99899.47;7686317;32;37209;-87
2023/12/30 13:02:28;;;;;;;25.40;15.75;;;;;;;12.24;52.18;99891.97;7686343;32;39426;-87
2023/12/30 13:06:46;;;;;;;24.80;15.43;;;;;;;12.67;51.57;99897.75;7685685;32;40004;-85
2023/12/30 13:11:02;;;;;;;27.17;15.23;;;;;;;12.75;50.67;99897.19;7693694;32;38740;-86
2023/12/30 13:15:20;;;;;;;24.00;13.98;;;;;;;12.83;49.97;99893.03;7685818;32;38064;-87
2023/12/30 13:19:37;;;;;;;22.48;14.15;;;;;;;13.31;49.24;99895.09;7685870;32;39843;-86
2023/12/30 13:23:57;;;;;;;20.45;12.68;;;;;;;13.42;48.36;99891.22;7686699;32;40856;-86
2023/12/30 13:28:14;;;;;;;18.37;11.23;;;;;;;13.60;47.78;99881.44;7685682;32;37809;-87
2023/12/30 13:32:31;;;;;;;18.85;10.80;;;;;;;13.81;47.67;99892.19;7685711;32;38348;-87
2023/12/30 13:36:54;;;;;;;20.48;11.32;;;;;;;15.11;44.80;99887.44;7685759;32;39095;-86
2023/12/30 13:41:14;;;;;;;19.08;11.18;;;;;;;17.88;38.33;99877.88;7685671;32;40591;-86
2023/12/30 13:45:32;;;;;;;17.62;10.35;;;;;;;20.97;31.97;99880.13;7685527;32;37876;-86
2023/12/30 13:50:09;;;;;;;17.58;10.88;;;;;;;22.67;28.69;99867.97;7703517;32;37153;-86
2023/12/30 13:54:25;;;;;;;17.33;11.20;;;;;;;22.42;29.29;99881.09;7699017;32;40136;-86
2023/12/30 13:58:43;;;;;;;19.60;12.35;;;;;;;21.42;30.33;99871.06;7685590;32;40517;-87
2023/12/30 14:03:03;;;;;;;17.62;11.43;;;;;;;19.84;33.09;99885.22;7685276;32;37949;-87
2023/12/30 14:07:28;;;;;;;18.23;10.60;;;;;;;22.64;29.27;99874.22;7684830;32;37424;-87
2023/12/30 14:11:50;;;;;;;15.00;9.57;;;;;;;25.25;24.69;99869.91;7694896;32;40387;-85
2023/12/30 14:16:07;;;;;;;14.82;9.70;;;;;;;26.52;23.30;99876.47;7726649;32;40720;-93
2023/12/30 14:20:24;;;;;;;15.18;9.85;;;;;;;25.54;23.96;99871.28;7711777;32;37915;-86
2023/12/30 14:24:40;;;;;;;17.12;10.10;;;;;;;24.07;25.44;99879.31;7710005;32;37330;-86
2023/12/30 14:28:56;;;;;;;17.40;10.77;;;;;;;23.24;27.17;99883.53;7711924;32;39614;-85
2023/12/30 14:33:13;;;;;;;17.40;10.52;;;;;;;22.79;27.50;99879.03;7711664;32;40063;-86
2023/12/30 14:37:29;;;;;;;21.33;14.10;;;;;;;22.97;27.47;99885.09;7711745;32;38051;-86
2023/12/30 14:41:46;;;;;;;14.20;9.00;;;;;;;22.78;27.42;99882.16;7710599;32;37279;-86
2023/12/30 14:46:04;;;;;;;14.13;9.05;;;;;;;21.94;28.43;99886.31;7717750;32;40193;-85
2023/12/30 14:50:21;;;;;;;13.57;8.85;;;;;;;19.64;31.85;99896.97;7688060;32;40042;-86
2023/12/30 14:54:38;;;;;;;15.10;8.85;;;;;;;18.25;34.50;99898.59;7708614;32;38064;-85
2023/12/30 14:58:54;;;;;;;14.87;8.75;;;;;;;17.07;36.68;99912.72;7711610;32;37317;-88
2023/12/30 15:03:10;;;;;;;17.50;8.35;;;;;;;16.25;38.41;99917.28;7709856;32;39439;-85
2023/12/30 15:07:27;;;;;;;13.85;7.93;;;;;;;15.35;40.62;99912.84;7710197;32;40646;-87
2023/12/30 15:11:43;;;;;;;16.55;9.30;;;;;;;14.61;42.68;99923.59;7711465;32;38061;-85
2023/12/30 15:16:00;;;;;;;15.55;9.88;;;;;;;14.15;43.93;99930.44;7711348;32;36928;-86
2023/12/30 15:20:18;;;;;;;18.08;9.32;;;;;;;13.79;45.01;99930.03;7711429;32;39164;-86
2023/12/30 15:24:35;;;;;;;36.47;21.90;;;;;;;13.56;45.78;99937.09;7711270;32;40831;-85
2023/12/30 15:28:51;;;;;;;19.08;9.40;;;;;;;13.33;46.38;99945.78;7711205;32;37895;-86
2023/12/30 15:33:08;;;;;;;17.35;9.32;;;;;;;13.00;47.31;99961.03;7712337;32;37928;-88
2023/12/30 15:37:24;;;;;;;15.23;8.73;;;;;;;12.74;48.02;99952.97;7710778;32;39470;-90
2023/12/30 15:41:42;;;;;;;17.42;9.43;;;;;;;12.32;49.39;99954.28;7725276;32;39913;-85
2023/12/30 15:45:59;;;;;;;15.45;8.82;;;;;;;12.39;49.05;99952.06;7716469;32;38152;-85
2023/12/30 15:50:15;;;;;;;19.27;9.32;;;;;;;12.01;50.08;99946.19;7691743;32;37494;-88
2023/12/30 15:54:31;;;;;;;15.60;9.13;;;;;;;12.07;49.67;99948.91;7692435;32;39255;-90
2023/12/30 15:58:48;;;;;;;16.73;9.02;;;;;;;11.93;50.09;99959.59;7710353;32;39719;-88
2023/12/30 16:03:04;;;;;;;14.38;9.48;;;;;;;11.74;50.55;99956.59;7711682;32;37999;-85
2023/12/30 16:07:22;;;;;;;18.48;11.77;;;;;;;11.51;50.88;99945.13;7703828;32;37455;-85
2023/12/30 16:11:38;;;;;;;22.33;12.50;;;;;;;11.15;51.94;99955.25;7700429;32;39281;-85
2023/12/30 16:15:58;;;;;;;28.60;16.70;;;;;;;11.19;52.11;99951.72;7693533;32;39886;-85
2023/12/30 16:20:14;;;;;;;26.10;14.23;;;;;;;11.35;51.66;99946.22;7698360;32;38254;-85
2023/12/30 16:24:31;;;;;;;22.17;12.05;;;;;;;11.03;52.03;99953.59;7717325;32;37681;-76
2023/12/30 16:28:48;;;;;;;20.95;11.90;;;;;;;11.01;52.84;99960.41;7720894;32;39293;-84
2023/12/30 16:33:04;;;;;;;17.80;10.70;;;;;;;10.92;52.95;99956.56;7719500;32;41209;-84
2023/12/30 16:37:22;;;;;;;19.62;10.60;;;;;;;10.62;52.97;99958.94;7695939;32;38195;-83
2023/12/30 16:41:38;;;;;;;15.48;9.70;;;;;;;10.43;53.27;99964.06;7695717;32;37427;-83
2023/12/30 16:45:55;;;;;;;15.57;9.20;;;;;;;10.80;53.43;99965.81;7732314;32;39651;-83
2023/12/30 16:50:11;;;;;;;14.87;8.63;;;;;;;10.25;54.38;99980.84;7749372;32;40306;-84
2023/12/30 16:54:27;;;;;;;16.62;9.57;;;;;;;10.30;53.79;99978.16;7748055;32;38137;-83
2023/12/30 16:58:44;;;;;;;15.38;9.65;;;;;;;10.25;53.95;99981.66;7749391;32;37300;-84
2023/12/30 17:03:00;;;;;;;16.25;9.20;;;;;;;10.29;53.88;99987.41;7747546;32;39605;-83
2023/12/30 17:07:17;;;;;;;17.08;8.82;;;;;;;10.08;54.38;99992.75;7713898;32;40174;-84
2023/12/30 17:11:35;;;;;;;15.77;8.65;;;;;;;10.06;54.47;99981.28;7704012;32;38996;-84
2023/12/30 17:15:51;;;;;;;19.25;9.98;;;;;;;10.08;54.25;99981.84;7704517;32;37539;-84
2023/12/30 17:20:08;;;;;;;14.27;9.05;;;;;;;9.66;55.44;99985.41;7713095;32;40595;-84
2023/12/30 17:24:24;;;;;;;18.70;9.07;;;;;;;9.55;55.40;99983.66;7705748;32;39966;-88
2023/12/30 17:28:41;;;;;;;16.02;9.57;;;;;;;9.35;55.80;99985.16;7705490;32;38588;-83
2023/12/30 17:32:57;;;;;;;18.00;9.52;;;;;;;9.12;56.48;99990.91;7720078;32;35759;-90
2023/12/30 17:37:14;;;;;;;17.00;9.80;;;;;;;9.05;56.75;100001.16;7712272;32;39307;-84
2023/12/30 17:41:30;;;;;;;18.80;9.88;;;;;;;8.92;57.35;100008.66;7717790;32;41116;-77
2023/12/30 17:45:47;;;;;;;16.62;9.57;;;;;;;8.62;61.60;100009.97;7720647;32;37973;-87
2023/12/30 17:50:07;;;;;;;17.67;9.00;;;;;;;8.63;59.52;100014.31;7703011;32;38207;-88
2023/12/30 17:54:23;;;;;;;17.52;9.90;;;;;;;8.64;58.62;100018.69;7697269;32;39603;-86
2023/12/30 17:58:40;;;;;;;14.98;9.98;;;;;;;8.65;58.19;100014.88;7740013;32;39937;-85
2023/12/30 18:02:57;;;;;;;17.37;10.48;;;;;;;8.76;57.98;100018.56;7709533;32;38680;-85
2023/12/30 18:07:15;;;;;;;20.17;11.45;;;;;;;8.61;58.26;100019.19;7723075;32;38349;-86
2023/12/30 18:11:36;;;;;;;18.48;11.43;;;;;;;8.49;57.80;100023.91;7705947;32;39415;-85
2023/12/30 18:15:52;;;;;;;19.12;10.45;;;;;;;8.24;57.88;100027.91;7692582;32;40030;-86
2023/12/30 18:20:10;;;;;;;19.33;10.57;;;;;;;8.24;57.80;100027.06;7705455;32;36600;-89
2023/12/30 18:24:26;;;;;;;15.80;8.70;;;;;;;8.26;58.12;100033.91;7686727;32;37813;-89
2023/12/30 18:28:42;;;;;;;17.30;9.95;;;;;;;8.19;57.96;100025.12;7704741;32;40094;-90
2023/12/30 18:32:59;;;;;;;15.90;9.65;;;;;;;8.12;59.02;100020.94;7690983;32;41336;-90
2023/12/30 18:37:16;;;;;;;24.92;13.90;;;;;;;8.07;59.51;100029.81;7690337;32;37688;-81
2023/12/30 18:41:32;;;;;;;20.30;12.65;;;;;;;8.24;59.72;100029.78;7698987;32;36999;-89
2023/12/30 18:45:49;;;;;;;16.90;9.52;;;;;;;8.20;59.00;100034.91;7688770;32;39395;-90
2023/12/30 18:50:05;;;;;;;16.83;9.02;;;;;;;7.93;58.83;100028.53;7708231;32;39874;-87
2023/12/30 18:54:22;;;;;;;14.40;9.18;;;;;;;8.11;58.59;100035.59;7697217;32;37790;-87
2023/12/30 18:58:38;;;;;;;18.00;10.13;;;;;;;7.94;59.46;100030.19;7685906;32;37683;-87
2023/12/30 19:02:54;;;;;;;17.75;11.43;;;;;;;7.96;59.53;100038.91;7685200;32;39305;-86
2023/12/30 19:07:11;;;;;;;20.73;10.45;;;;;;;7.93;59.70;100034.78;7711458;32;40070;-86
2023/12/30 19:11:27;;;;;;;17.60;10.02;;;;;;;7.88;59.69;100043.69;7711177;32;37894;-87
2023/12/30 19:15:43;;;;;;;18.40;10.10;;;;;;;7.95;59.39;100048.09;7711253;32;37417;-87
2023/12/30 19:20:00;;;;;;;14.25;8.52;;;;;;;7.81;59.55;100037.59;7711130;32;39993;-88
2023/12/30 19:24:16;;;;;;;17.17;10.02;;;;;;;7.86;58.83;100043.13;7711494;32;40754;-87
2023/12/30 19:28:32;;;;;;;21.23;12.63;;;;;;;7.78;60.16;100046.22;7694049;32;37962;-88
2023/12/30 19:32:48;;;;;;;16.15;9.88;;;;;;;7.47;61.19;100040.28;7720445;32;37269;-85
2023/12/30 19:37:05;;;;;;;16.35;9.35;;;;;;;7.52;60.56;100034.16;7698929;32;40139;-85
2023/12/30 19:41:22;;;;;;;17.73;9.82;;;;;;;7.50;60.20;100036.25;7684464;32;39720;-86
2023/12/30 19:45:38;;;;;;;22.95;11.23;;;;;;;6.84;62.57;100055.66;7684328;32;38490;-87
2023/12/30 19:49:56;;;;;;;17.65;11.02;;;;;;;7.29;60.78;100051.34;7685982;32;36901;-84